createdAt,value
2023-05-12T00:02:46.524Z,16.48
2023-05-12T00:07:48.717Z,16.46
2023-05-12T00:12:50.923Z,16.36
2023-05-12T00:17:53.221Z,16.52
2023-05-12T00:22:55.407Z,16.60
2023-05-12T00:27:57.664Z,16.70
2023-05-12T00:32:59.837Z,16.63
2023-05-12T00:38:02.062Z,16.58
2023-05-12T00:43:04.563Z,16.61
2023-05-12T00:48:08.102Z,16.68
2023-05-12T00:53:10.764Z,16.60
2023-05-12T00:58:12.937Z,16.57
2023-05-12T01:03:15.457Z,16.45
2023-05-12T01:08:18.206Z,16.46
2023-05-12T01:13:20.470Z,16.37
2023-05-12T01:18:24.808Z,16.45
2023-05-12T01:23:36.696Z,16.17
2023-05-12T01:28:41.584Z,16.08
2023-05-12T01:33:43.944Z,16.36
2023-05-12T01:38:46.328Z,16.44
2023-05-12T01:43:48.478Z,16.26
2023-05-12T01:48:50.645Z,16.09
2023-05-12T01:53:52.834Z,16.17
2023-05-12T01:58:55.076Z,16.24
2023-05-12T02:03:57.493Z,16.40
2023-05-12T02:08:59.852Z,16.37
2023-05-12T02:14:02.109Z,16.38
2023-05-12T02:19:04.608Z,16.23
2023-05-12T02:24:07.098Z,16.25
2023-05-12T02:29:09.357Z,16.34
2023-05-12T02:34:11.596Z,16.38
2023-05-12T02:39:13.980Z,16.37
2023-05-12T02:44:17.633Z,16.25
2023-05-12T02:49:19.818Z,16.35
2023-05-12T02:54:22.211Z,16.33
2023-05-12T02:59:24.551Z,16.45
2023-05-12T03:04:26.896Z,16.35
2023-05-12T03:09:29.163Z,16.34
2023-05-12T03:14:31.343Z,16.32
2023-05-12T03:19:33.634Z,16.35
2023-05-12T03:24:37.005Z,16.33
2023-05-12T03:29:39.223Z,16.15
2023-05-12T03:34:41.439Z,16.35
2023-05-12T03:39:43.730Z,16.26
2023-05-12T03:44:45.980Z,16.20
2023-05-12T03:49:48.193Z,16.13
2023-05-12T03:54:51.035Z,16.18
2023-05-12T03:59:53.216Z,16.25
2023-05-12T04:04:55.442Z,16.23
2023-05-12T04:09:57.661Z,16.17
2023-05-12T04:14:59.888Z,16.26
2023-05-12T04:20:02.186Z,16.30
2023-05-12T04:25:04.593Z,16.31
2023-05-12T04:30:07.506Z,16.44
2023-05-12T04:35:09.968Z,16.42
2023-05-12T04:40:12.370Z,16.25
2023-05-12T04:45:14.599Z,16.38
2023-05-12T04:50:16.874Z,16.44
2023-05-12T04:55:19.378Z,16.46
2023-05-12T05:00:21.766Z,16.57
2023-05-12T05:05:24.013Z,16.51
2023-05-12T05:10:26.305Z,16.61
2023-05-12T05:15:28.524Z,16.61
2023-05-12T05:20:33.264Z,16.74
2023-05-12T05:25:35.770Z,16.68
2023-05-12T05:30:38.598Z,16.82
2023-05-12T05:35:40.966Z,16.75
2023-05-12T05:40:53.041Z,16.81
2023-05-12T05:45:57.529Z,17.00
2023-05-12T05:50:59.893Z,16.92
2023-05-12T05:56:02.325Z,16.90
2023-05-12T06:01:05.165Z,16.93
2023-05-12T06:06:07.531Z,17.04
2023-05-12T06:11:09.756Z,17.25
2023-05-12T06:16:11.945Z,17.15
2023-05-12T06:21:14.120Z,17.03
2023-05-12T06:26:16.332Z,17.43
2023-05-12T06:31:18.720Z,17.56
2023-05-12T06:36:21.035Z,17.83
2023-05-12T06:41:25.466Z,18.03
2023-05-12T06:46:27.838Z,18.11
2023-05-12T06:51:30.029Z,18.13
2023-05-12T06:56:32.303Z,18.19
2023-05-12T07:01:34.967Z,18.28
2023-05-12T07:06:37.663Z,18.08
2023-05-12T07:11:39.921Z,17.94
2023-05-12T07:16:42.230Z,18.26
2023-05-12T07:21:44.990Z,18.51
2023-05-12T07:26:47.672Z,18.66
2023-05-12T07:31:50.460Z,18.24
2023-05-12T07:36:52.781Z,17.76
2023-05-12T07:41:55.694Z,18.33
2023-05-12T07:46:58.069Z,18.73
2023-05-12T07:52:00.536Z,18.90
2023-05-12T07:57:02.755Z,19.10
2023-05-12T08:02:05.199Z,19.38
2023-05-12T08:07:07.470Z,19.46
2023-05-12T08:12:09.724Z,19.62
2023-05-12T08:17:12.050Z,19.87
2023-05-12T08:22:14.426Z,19.98
2023-05-12T08:27:16.690Z,19.72
2023-05-12T08:32:18.926Z,19.73
2023-05-12T08:37:21.347Z,19.63
2023-05-12T08:42:37.911Z,19.48
2023-05-12T08:47:42.115Z,19.69
2023-05-12T08:52:44.646Z,19.86
2023-05-12T08:57:48.822Z,20.09
2023-05-12T09:02:54.698Z,19.99
2023-05-12T09:07:58.302Z,19.88
2023-05-12T09:13:09.333Z,19.60
2023-05-12T09:18:14.112Z,19.73
2023-05-12T09:23:20.872Z,20.14
2023-05-12T09:28:23.142Z,19.62
2023-05-12T09:33:25.844Z,19.44
2023-05-12T09:38:27.985Z,19.87
2023-05-12T09:43:30.814Z,19.86
2023-05-12T09:48:33.758Z,20.09
2023-05-12T09:53:43.175Z,20.57
2023-05-12T09:58:48.590Z,19.94
2023-05-12T10:03:59.654Z,20.33
2023-05-12T10:09:27.703Z,20.66
2023-05-12T10:14:30.625Z,20.75
2023-05-12T10:19:34.329Z,20.98
2023-05-12T10:24:38.263Z,20.83
2023-05-12T10:29:41.549Z,21.12
2023-05-12T10:34:44.611Z,21.06
2023-05-12T10:39:52.112Z,21.17
2023-05-12T10:44:56.767Z,21.25
2023-05-12T10:50:01.155Z,21.36
2023-05-12T10:55:05.033Z,21.35
2023-05-12T11:00:14.600Z,21.44
2023-05-12T11:05:17.483Z,21.53
2023-05-12T11:10:20.211Z,21.50
2023-05-12T11:15:23.707Z,21.86
2023-05-12T11:20:29.551Z,22.08
2023-05-12T11:25:33.134Z,22.36
2023-05-12T11:30:35.514Z,22.68
2023-05-12T11:35:37.752Z,22.63
2023-05-12T11:40:41.752Z,22.93
2023-05-12T11:45:46.219Z,23.39
2023-05-12T11:50:51.606Z,23.82
2023-05-12T11:55:56.356Z,24.16
2023-05-12T12:01:10.618Z,24.43
2023-05-12T12:06:12.786Z,24.60
2023-05-12T12:11:14.999Z,24.88
2023-05-12T12:16:17.381Z,24.85
2023-05-12T12:21:19.718Z,24.98
2023-05-12T12:26:23.388Z,25.16
2023-05-12T12:31:25.728Z,25.44
2023-05-12T12:36:28.025Z,25.56
2023-05-12T12:41:30.431Z,25.83
2023-05-12T12:46:33.014Z,25.91
2023-05-12T12:51:44.977Z,25.85
2023-05-12T12:56:48.575Z,25.65
2023-05-12T13:01:54.419Z,24.96
2023-05-12T13:06:56.807Z,24.92
2023-05-12T13:12:00.046Z,24.68
2023-05-12T13:17:02.941Z,25.09
2023-05-12T13:22:05.570Z,25.27
2023-05-12T13:27:09.450Z,25.64
2023-05-12T13:32:11.750Z,25.84
2023-05-12T13:37:14.003Z,25.91
2023-05-12T13:42:17.494Z,25.94
2023-05-12T13:47:19.810Z,26.11
2023-05-12T13:52:22.292Z,25.86
2023-05-12T13:57:24.480Z,25.52
2023-05-12T14:02:26.745Z,25.16
2023-05-12T14:07:29.730Z,24.89
2023-05-12T14:12:31.955Z,24.64
2023-05-12T14:17:34.216Z,24.89
2023-05-12T14:22:36.583Z,25.34
2023-05-12T14:27:38.994Z,25.89
2023-05-12T14:32:41.244Z,26.55
2023-05-12T14:37:43.512Z,27.34
2023-05-12T14:42:45.821Z,27.84
2023-05-12T14:47:48.150Z,28.06
2023-05-12T14:52:50.478Z,28.04
2023-05-12T14:57:52.851Z,28.05
2023-05-12T15:02:55.191Z,27.96
2023-05-12T15:07:57.489Z,27.52
2023-05-12T15:13:00.016Z,27.79
2023-05-12T15:18:02.238Z,27.66
2023-05-12T15:23:04.526Z,27.59
2023-05-12T15:28:07.457Z,27.36
2023-05-12T15:33:10.652Z,27.20
2023-05-12T15:38:14.139Z,26.94
2023-05-12T15:43:16.324Z,26.75
2023-05-12T15:48:18.644Z,26.64
2023-05-12T15:53:20.999Z,26.39
2023-05-12T15:58:23.216Z,26.22
2023-05-12T16:03:25.661Z,25.81
2023-05-12T16:08:28.047Z,25.54
2023-05-12T16:13:31.002Z,25.31
2023-05-12T16:18:33.190Z,24.99
2023-05-12T16:23:36.066Z,24.44
2023-05-12T16:28:38.252Z,24.26
2023-05-12T16:33:40.544Z,24.14
2023-05-12T16:38:42.923Z,23.87
2023-05-12T16:43:45.253Z,23.38
2023-05-12T16:48:47.498Z,23.07
2023-05-12T16:53:49.647Z,22.70
2023-05-12T16:58:52.211Z,22.45
2023-05-12T17:03:54.541Z,22.25
2023-05-12T17:08:56.958Z,22.04
2023-05-12T17:13:59.370Z,21.88
2023-05-12T17:24:07.701Z,21.40
2023-05-12T17:29:10.120Z,21.32
2023-05-12T17:34:12.524Z,21.11
2023-05-12T17:39:16.477Z,20.95
2023-05-12T17:44:18.856Z,20.55
2023-05-12T17:49:21.125Z,20.64
2023-05-12T17:54:23.533Z,20.51
2023-05-12T17:59:25.817Z,20.40
2023-05-12T18:04:28.503Z,20.39
2023-05-12T18:09:30.835Z,20.27
2023-05-12T18:14:33.079Z,20.25
2023-05-12T18:19:35.287Z,20.09
2023-05-12T18:24:37.586Z,19.94
2023-05-12T18:29:39.944Z,19.94
2023-05-12T18:34:46.070Z,19.89
2023-05-12T18:39:48.615Z,19.71
2023-05-12T18:44:51.099Z,19.68
2023-05-12T18:49:53.674Z,19.59
2023-05-12T18:54:55.968Z,19.49
2023-05-12T18:59:58.200Z,19.52
2023-05-12T19:05:00.483Z,19.49
2023-05-12T19:10:02.958Z,19.34
2023-05-12T19:15:05.853Z,19.36
2023-05-12T19:20:08.974Z,19.32
2023-05-12T19:25:12.148Z,19.19
2023-05-12T19:30:15.570Z,19.11
2023-05-12T19:35:18.315Z,19.06
2023-05-12T19:40:20.692Z,19.12
2023-05-12T19:45:23.484Z,19.25
2023-05-12T19:50:26.127Z,19.20
2023-05-12T19:55:28.388Z,19.27
2023-05-12T20:00:30.730Z,19.34
2023-05-12T20:05:37.768Z,19.24
2023-05-12T20:10:40.025Z,19.31
2023-05-12T20:15:43.928Z,19.25
2023-05-12T20:20:46.180Z,19.11
2023-05-12T20:25:48.448Z,19.03
2023-05-12T20:30:50.900Z,19.22
2023-05-12T20:35:53.222Z,19.19
2023-05-12T20:40:55.810Z,19.08
2023-05-12T20:45:58.090Z,18.91
2023-05-12T20:51:09.813Z,18.91
2023-05-12T20:56:13.059Z,18.96
2023-05-12T21:01:16.964Z,19.02
2023-05-12T21:06:19.151Z,18.93
2023-05-12T21:11:21.749Z,18.85
2023-05-12T21:16:23.997Z,18.89
2023-05-12T21:21:26.640Z,18.73
2023-05-12T21:26:28.825Z,18.74
2023-05-12T21:31:31.186Z,18.77
2023-05-12T21:36:33.968Z,18.71
2023-05-12T21:41:38.846Z,18.51
2023-05-12T21:46:41.170Z,18.54
2023-05-12T21:51:43.497Z,18.59
2023-05-12T21:56:45.732Z,18.50
2023-05-12T22:01:48.023Z,18.40
2023-05-12T22:06:51.172Z,18.38
2023-05-12T22:11:53.531Z,18.43
2023-05-12T22:16:56.452Z,18.40
2023-05-12T22:21:58.713Z,18.34
2023-05-12T22:27:00.960Z,18.31
2023-05-12T22:32:03.216Z,18.21
2023-05-12T22:37:05.669Z,18.17
2023-05-12T22:42:07.990Z,18.13
2023-05-12T22:47:10.236Z,18.17
2023-05-12T22:52:12.565Z,18.11
2023-05-12T22:57:14.719Z,18.05
2023-05-12T23:02:17.155Z,18.04
2023-05-12T23:07:19.377Z,18.08
2023-05-12T23:12:21.626Z,17.97
2023-05-12T23:17:23.943Z,18.03
2023-05-12T23:22:26.455Z,17.91
2023-05-12T23:27:28.631Z,17.90
2023-05-12T23:32:31.579Z,17.99
2023-05-12T23:37:33.839Z,17.79
2023-05-12T23:42:36.112Z,17.70
2023-05-12T23:47:38.339Z,17.75
2023-05-12T23:52:40.568Z,17.52
2023-05-12T23:57:42.842Z,17.67
